Time;durP1;ratioP1;P1;durP2;ratioP2;P2;SDS_P1;SDS_P2;PMS_P1;PMS_P2;Temp;Humidity;BMP_temperature;BMP_pressure;BME280_temperature;BME280_humidity;BME280_pressure;Samples;Min_cycle;Max_cycle;Signal;HPM_P1;HPM_P2
2022/12/16 00:00:28;;;;;;;63.42;22.05;;;-2.30;99.90;;;;;;5072213;28;20070;-72
2022/12/16 00:02:54;;;;;;;60.20;19.52;;;;;;;;;;5073186;28;20041;-72
2022/12/16 00:05:20;;;;;;;53.95;20.77;;;-1.70;99.90;;;;;;5072454;28;20366;-73
2022/12/16 00:07:47;;;;;;;61.38;22.27;;;-2.10;99.90;;;;;;5073278;28;20036;-73
2022/12/16 00:10:13;;;;;;;61.20;25.50;;;-2.10;99.90;;;;;;5072801;28;20020;-72
2022/12/16 00:12:39;;;;;;;53.70;23.73;;;-2.30;99.90;;;;;;5070323;28;20031;-73
2022/12/16 00:15:05;;;;;;;67.15;26.15;;;-2.40;99.90;;;;;;5071725;28;20096;-73
2022/12/16 00:17:30;;;;;;;62.50;22.88;;;-2.40;99.90;;;;;;5070966;28;20035;-72
2022/12/16 00:19:56;;;;;;;74.70;22.80;;;;;;;;;;5070690;28;20028;-71
2022/12/16 00:22:22;;;;;;;83.35;28.77;;;-2.30;99.90;;;;;;5070802;28;20146;-72
2022/12/16 00:24:48;;;;;;;80.40;26.00;;;;;;;;;;5072969;28;20020;-76
2022/12/16 00:27:15;;;;;;;69.82;24.95;;;;;;;;;;5075776;28;20083;-77
2022/12/16 00:29:40;;;;;;;76.35;26.75;;;-2.60;99.90;;;;;;5077463;28;20016;-77
2022/12/16 00:32:06;;;;;;;67.82;25.08;;;-2.50;99.90;;;;;;5077235;28;20170;-77
2022/12/16 00:34:32;;;;;;;79.63;26.35;;;-2.50;99.90;;;;;;5073203;28;20021;-76
2022/12/16 00:36:58;;;;;;;72.57;24.95;;;;;;;;;;5073048;28;20109;-76
2022/12/16 00:39:23;;;;;;;66.70;25.15;;;-2.30;99.90;;;;;;5073591;28;20099;-77
2022/12/16 00:41:50;;;;;;;77.32;23.33;;;-2.50;99.90;;;;;;5072935;28;20128;-77
2022/12/16 00:44:16;;;;;;;60.42;22.48;;;-2.30;99.90;;;;;;5073339;28;20610;-76
2022/12/16 00:46:41;;;;;;;56.15;23.65;;;-2.50;99.90;;;;;;5073105;28;20020;-77
2022/12/16 00:49:07;;;;;;;68.43;22.88;;;-2.40;99.90;;;;;;5075394;28;20027;-76
2022/12/16 00:51:33;;;;;;;53.92;18.30;;;-2.40;99.90;;;;;;5073911;28;20397;-72
2022/12/16 00:53:59;;;;;;;56.95;23.70;;;-2.50;99.90;;;;;;5075124;28;20016;-76
2022/12/16 00:56:25;;;;;;;67.22;24.02;;;;;;;;;;5076437;28;20455;-75
2022/12/16 00:58:50;;;;;;;63.20;22.60;;;-2.70;99.90;;;;;;5072475;28;20077;-75
2022/12/16 01:01:16;;;;;;;63.70;23.35;;;-2.60;99.90;;;;;;5073216;28;20119;-76
2022/12/16 01:03:42;;;;;;;55.05;20.00;;;-2.50;99.90;;;;;;5071311;28;20024;-76
2022/12/16 01:06:13;;;;;;;49.83;20.95;;;-2.40;99.90;;;;;;5076095;28;20465;-77
2022/12/16 01:08:39;;;;;;;60.75;23.55;;;-2.40;99.90;;;;;;5078561;28;20051;-76
2022/12/16 01:11:05;;;;;;;58.97;19.40;;;-2.40;99.90;;;;;;5080650;28;20020;-77
2022/12/16 01:13:31;;;;;;;53.22;21.05;;;-0.30;99.90;;;;;;5079538;28;20465;-75
2022/12/16 01:16:01;;;;;;;66.93;23.20;;;-2.50;99.90;;;;;;5072654;28;20082;-76
2022/12/16 01:18:27;;;;;;;55.10;22.20;;;;;;;;;;5069591;28;20051;-71
2022/12/16 01:20:52;;;;;;;61.10;24.90;;;-2.60;99.90;;;;;;5070512;28;20054;-71
2022/12/16 01:23:18;;;;;;;59.78;24.67;;;-2.40;99.90;;;;;;5069943;28;20645;-76
2022/12/16 01:25:44;;;;;;;56.20;22.38;;;-2.40;99.90;;;;;;5071138;28;20450;-77
2022/12/16 01:28:10;;;;;;;53.30;20.80;;;;;;;;;;5074139;28;20406;-72
2022/12/16 01:30:35;;;;;;;54.78;23.27;;;-2.40;99.90;;;;;;5071960;28;20051;-74
2022/12/16 01:33:01;;;;;;;73.43;24.65;;;0.00;99.90;;;;;;5071283;28;20449;-72
2022/12/16 01:35:27;;;;;;;52.90;22.60;;;-2.40;99.90;;;;;;5070506;28;20031;-74
2022/12/16 01:37:52;;;;;;;63.45;23.73;;;-2.40;99.90;;;;;;5070849;28;20667;-72
2022/12/16 01:40:21;;;;;;;70.15;26.13;;;-2.40;99.90;;;;;;5071466;28;20040;-76
2022/12/16 01:42:47;;;;;;;75.13;26.23;;;-2.50;99.90;;;;;;5071807;28;20047;-72
2022/12/16 01:45:33;;;;;;;63.90;23.15;;;-2.60;99.90;;;;;;5076724;28;20032;-78
2022/12/16 01:48:18;;;;;;;68.82;26.33;;;-2.60;99.90;;;;;;5074734;28;20022;-77
2022/12/16 01:50:45;;;;;;;74.70;27.10;;;-2.40;99.90;;;;;;5075356;28;20397;-77
2022/12/16 01:53:11;;;;;;;75.57;28.42;;;-2.40;99.90;;;;;;5077455;28;20465;-78
2022/12/16 01:55:42;;;;;;;67.97;25.55;;;-2.50;99.90;;;;;;5076706;28;20024;-75
2022/12/16 01:58:25;;;;;;;67.90;25.70;;;-2.50;99.90;;;;;;5077834;28;20033;-74
2022/12/16 02:00:51;;;;;;;74.80;26.80;;;-2.40;99.90;;;;;;5071149;28;20025;-72
2022/12/16 02:03:17;;;;;;;82.35;27.02;;;-2.50;99.90;;;;;;5070573;28;20035;-77
2022/12/16 02:05:44;;;;;;;83.22;29.55;;;-2.50;99.90;;;;;;5070664;28;20100;-74
2022/12/16 02:08:17;;;;;;;60.55;21.90;;;-2.60;99.90;;;;;;5071564;28;20039;-72
2022/12/16 02:10:43;;;;;;;76.72;27.92;;;-2.50;99.90;;;;;;5072358;28;20029;-72
2022/12/16 02:13:27;;;;;;;78.43;28.23;;;-2.40;99.90;;;;;;5071100;28;20420;-72
2022/12/16 02:16:08;;;;;;;66.00;25.83;;;-2.50;99.90;;;;;;5071462;28;20064;-74
2022/12/16 02:19:21;;;;;;;77.53;26.50;;;-2.60;99.90;;;;;;5070263;28;20481;-72
2022/12/16 02:22:12;;;;;;;89.07;31.60;;;-2.50;99.90;;;;;;5039425;28;20537;-78
2022/12/16 02:25:02;;;;;;;82.60;27.50;;;-2.70;99.90;;;;;;5077443;28;20031;-79
2022/12/16 02:27:39;;;;;;;86.30;25.42;;;-2.60;99.90;;;;;;5075249;28;20537;-77
2022/12/16 02:30:39;;;;;;;78.10;25.50;;;-2.80;99.90;;;;;;5073211;28;20032;-77
2022/12/16 02:33:16;;;;;;;61.10;24.20;;;-2.60;99.90;;;;;;5074237;28;20096;-71
2022/12/16 02:36:20;;;;;;;69.13;26.08;;;-2.50;99.90;;;;;;5075310;28;20032;-74
2022/12/16 02:38:57;;;;;;;72.28;27.35;;;-2.70;99.90;;;;;;5037995;28;20051;-76
2022/12/16 02:41:29;;;;;;;71.72;26.33;;;-2.40;99.90;;;;;;5069990;28;20057;-73
2022/12/16 02:44:02;;;;;;;74.07;28.77;;;-2.40;99.90;;;;;;5069585;28;20025;-72
2022/12/16 02:46:31;;;;;;;78.72;25.13;;;-2.40;99.90;;;;;;5070979;28;20100;-72
2022/12/16 02:49:27;;;;;;;60.40;29.20;;;-2.60;99.90;;;;;;5070426;28;20538;-74
2022/12/16 02:51:54;;;;;;;70.43;26.17;;;-2.50;99.90;;;;;;5060451;28;20123;-72
2022/12/16 02:54:21;;;;;;;75.55;26.48;;;-2.50;99.90;;;;;;5074025;28;20013;-74
2022/12/16 02:57:41;;;;;;;69.47;25.52;;;-2.30;99.90;;;;;;5069324;28;20509;-72
2022/12/16 03:00:13;;;;;;;58.55;22.35;;;-2.40;99.90;;;;;;5007436;28;20042;-75
2022/12/16 03:03:10;;;;;;;55.08;20.48;;;-2.50;99.90;;;;;;5063247;28;20539;-72
2022/12/16 03:05:41;;;;;;;75.15;24.52;;;-0.90;99.90;;;;;;5069992;28;20086;-72
2022/12/16 03:08:12;;;;;;;58.17;21.88;;;-2.10;99.90;;;;;;5067517;28;20056;-76
2022/12/16 03:10:44;;;;;;;58.88;21.48;;;-2.50;99.90;;;;;;5069181;28;20111;-72
2022/12/16 03:13:12;;;;;;;60.17;19.58;;;-2.60;99.90;;;;;;5067201;28;20028;-72
2022/12/16 03:15:40;;;;;;;63.10;23.80;;;-2.40;99.90;;;;;;5069342;28;20056;-73
2022/12/16 03:18:08;;;;;;;44.22;20.38;;;-2.50;99.90;;;;;;5069262;28;20021;-71
2022/12/16 03:20:40;;;;;;;47.83;20.60;;;-2.50;99.90;;;;;;5069105;28;20025;-72
2022/12/16 03:23:12;;;;;;;44.33;16.60;;;-2.70;99.90;;;;;;5075125;28;20048;-75
2022/12/16 03:25:42;;;;;;;37.38;15.77;;;-2.40;99.90;;;;;;5074610;28;20105;-73
2022/12/16 03:28:45;;;;;;;57.75;21.67;;;-2.50;99.90;;;;;;5073765;28;20087;-72
2022/12/16 03:31:28;;;;;;;43.90;15.85;;;-2.60;99.90;;;;;;5042767;28;20485;-76
2022/12/16 03:34:18;;;;;;;47.10;20.80;;;-2.60;99.90;;;;;;5075566;28;20097;-76
2022/12/16 03:36:50;;;;;;;55.13;22.40;;;-2.80;99.90;;;;;;5064238;28;20107;-73
2022/12/16 03:39:18;;;;;;;47.60;18.42;;;-2.60;99.90;;;;;;5089049;28;20020;-72
2022/12/16 03:41:47;;;;;;;41.47;17.35;;;-2.70;99.90;;;;;;5088150;28;20477;-72
2022/12/16 03:44:13;;;;;;;;;;;-2.60;99.90;;;;;;5072693;28;20206;-72
2022/12/16 03:46:39;;;;;;;40.38;17.50;;;-2.40;99.90;;;;;;5073454;28;20420;-72
2022/12/16 03:49:04;;;;;;;47.30;18.88;;;-2.20;99.90;;;;;;5073874;28;20039;-73
2022/12/16 03:51:30;;;;;;;47.05;18.67;;;-2.70;99.90;;;;;;5074254;28;20039;-73
2022/12/16 03:53:56;;;;;;;49.58;19.10;;;-2.60;99.90;;;;;;5079410;28;20028;-76
2022/12/16 03:56:21;;;;;;;52.70;22.55;;;-2.50;99.90;;;;;;5075334;28;20149;-78
2022/12/16 03:58:47;;;;;;;43.15;17.88;;;-2.40;99.90;;;;;;5075241;28;20021;-77
2022/12/16 04:01:13;;;;;;;36.05;14.57;;;-2.80;99.90;;;;;;5074693;28;20024;-78
2022/12/16 04:03:39;;;;;;;38.15;14.02;;;-2.50;99.90;;;;;;5074671;28;20063;-75
2022/12/16 04:06:05;;;;;;;38.47;16.27;;;-2.70;99.90;;;;;;5078059;28;20025;-76
2022/12/16 04:08:30;;;;;;;37.35;15.70;;;-2.80;99.90;;;;;;5076969;28;20028;-76
2022/12/16 04:24:48;;;;;;;31.63;14.32;;;-2.80;99.90;;;;;;5073417;28;20044;-77
2022/12/16 04:27:26;;;;;;;41.88;17.08;;;-2.60;99.90;;;;;;5082850;28;20090;-78
